createdAt,value
2018-12-25T00:00:43.371Z,45.30
2018-12-25T00:03:24.332Z,45.40
2018-12-25T00:06:05.210Z,45.20
2018-12-25T00:08:45.428Z,45.50
2018-12-25T00:11:25.851Z,45.40
2018-12-25T00:14:06.612Z,44.90
2018-12-25T00:16:47.786Z,45.50
2018-12-25T00:19:28.447Z,45.50
2018-12-25T00:22:09.240Z,45.50
2018-12-25T00:24:49.549Z,45.50
2018-12-25T00:27:30.428Z,45.40
2018-12-25T00:30:10.967Z,45.50
2018-12-25T00:32:52.183Z,45.40
2018-12-25T00:35:32.738Z,45.90
2018-12-25T00:38:13.084Z,45.40
2018-12-25T00:40:53.254Z,45.40
2018-12-25T00:43:33.485Z,45.50
2018-12-25T00:46:14.586Z,45.50
2018-12-25T00:48:55.505Z,45.50
2018-12-25T00:51:36.195Z,45.60
2018-12-25T00:54:16.460Z,45.60
2018-12-25T00:56:57.121Z,45.30
2018-12-25T00:59:37.545Z,45.40
2018-12-25T01:02:18.044Z,45.30
2018-12-25T01:04:59.152Z,45.40
2018-12-25T01:07:40.126Z,45.30
2018-12-25T01:10:21.441Z,45.40
2018-12-25T01:13:02.352Z,45.40
2018-12-25T01:15:42.581Z,45.40
2018-12-25T01:18:23.905Z,44.80
2018-12-25T01:21:04.375Z,45.40
2018-12-25T01:23:45.427Z,45.40
2018-12-25T01:26:26.813Z,45.40
2018-12-25T01:29:06.985Z,45.20
2018-12-25T01:31:47.785Z,45.40
2018-12-25T01:34:28.586Z,45.40
2018-12-25T01:37:09.640Z,45.30
2018-12-25T01:39:50.389Z,45.30
2018-12-25T01:42:31.145Z,45.30
2018-12-25T01:45:12.369Z,45.30
2018-12-25T01:47:53.037Z,45.40
2018-12-25T01:50:33.332Z,45.40
2018-12-25T01:53:14.648Z,45.40
2018-12-25T01:55:55.337Z,45.40
2018-12-25T01:58:36.595Z,45.50
2018-12-25T02:01:18.129Z,45.50
2018-12-25T02:03:59.185Z,45.50
2018-12-25T02:06:40.073Z,45.20
2018-12-25T02:09:20.393Z,45.40
2018-12-25T02:12:01.693Z,45.40
2018-12-25T02:14:42.609Z,45.50
2018-12-25T02:17:23.428Z,45.50
2018-12-25T02:20:04.808Z,44.80
2018-12-25T02:22:46.205Z,45.50
2018-12-25T02:25:26.892Z,45.00
2018-12-25T02:28:08.276Z,45.50
2018-12-25T02:30:48.533Z,45.50
2018-12-25T02:33:28.769Z,45.50
2018-12-25T02:36:09.951Z,45.50
2018-12-25T02:38:50.193Z,45.50
2018-12-25T02:41:31.204Z,45.50
2018-12-25T02:44:12.284Z,45.30
2018-12-25T02:46:53.200Z,45.50
2018-12-25T02:49:34.585Z,45.50
2018-12-25T02:52:14.746Z,45.50
2018-12-25T02:54:55.052Z,45.50
2018-12-25T02:57:35.258Z,45.40
2018-12-25T03:00:15.492Z,45.40
2018-12-25T03:02:56.532Z,45.50
2018-12-25T03:05:35.201Z,45.30
2018-12-25T03:08:22.880Z,45.40
2018-12-25T03:11:10.902Z,45.40
2018-12-25T03:13:58.581Z,45.30
2018-12-25T03:16:46.228Z,45.30
2018-12-25T03:19:33.908Z,45.20
2018-12-25T03:22:21.639Z,44.80
2018-12-25T03:25:09.565Z,45.30
2018-12-25T03:27:57.492Z,45.30
2018-12-25T03:30:45.175Z,45.20
2018-12-25T03:33:32.848Z,45.30
2018-12-25T03:36:20.505Z,44.80
2018-12-25T03:39:08.175Z,45.30
2018-12-25T03:41:55.983Z,45.30
2018-12-25T03:44:45.241Z,45.20
2018-12-25T03:47:33.260Z,45.40
2018-12-25T03:50:38.783Z,45.50
2018-12-25T03:56:54.393Z,45.30
2018-12-25T03:59:42.273Z,45.50
2018-12-25T04:02:29.926Z,45.50
2018-12-25T04:05:10.339Z,45.50
2018-12-25T04:14:04.909Z,45.30
2018-12-25T04:19:51.538Z,45.40
2018-12-25T04:22:32.333Z,45.30
2018-12-25T04:25:13.472Z,45.20
2018-12-25T04:34:23.852Z,45.40
2018-12-25T04:37:23.354Z,45.30
2018-12-25T04:43:27.603Z,45.50
2018-12-25T04:46:08.345Z,45.60
2018-12-25T04:48:49.381Z,45.50
2018-12-25T04:57:38.533Z,45.60
2018-12-25T05:03:57.812Z,45.00
2018-12-25T05:06:38.404Z,45.30
2018-12-25T05:12:25.105Z,45.50
2018-12-25T05:15:05.684Z,45.40
2018-12-25T05:17:46.825Z,45.40
2018-12-25T05:20:27.463Z,45.40
2018-12-25T05:23:08.639Z,45.50
2018-12-25T05:25:49.917Z,45.50
2018-12-25T05:31:57.161Z,45.50
2018-12-25T05:34:56.714Z,46.10
2018-12-25T05:37:56.077Z,45.50
2018-12-25T05:50:10.647Z,45.30
2018-12-25T05:52:51.343Z,45.60
2018-12-25T05:58:36.405Z,45.50
2018-12-25T06:04:25.509Z,44.80
2018-12-25T06:10:11.564Z,45.40
2018-12-25T06:12:52.183Z,45.30
2018-12-25T06:18:38.190Z,45.40
2018-12-25T06:21:18.855Z,45.40
2018-12-25T06:33:47.513Z,45.30
2018-12-25T06:42:37.593Z,45.10
2018-12-25T06:48:11.284Z,45.20
2018-12-25T06:54:30.437Z,45.20
2018-12-25T07:00:18.229Z,45.10
2018-12-25T07:02:59.321Z,45.20
2018-12-25T07:05:40.167Z,45.20
2018-12-25T07:17:40.392Z,45.00
2018-12-25T07:26:31.347Z,45.00
2018-12-25T07:35:36.308Z,45.10
2018-12-25T07:41:35.785Z,45.10
2018-12-25T07:44:16.402Z,45.00
2018-12-25T07:46:57.634Z,45.10
2018-12-25T07:55:52.369Z,44.90
2018-12-25T07:58:33.339Z,45.10
2018-12-25T08:07:24.508Z,45.20
2018-12-25T08:13:10.560Z,45.30
2018-12-25T08:19:10.928Z,45.30
2018-12-25T08:21:52.045Z,45.00
2018-12-25T08:28:12.613Z,45.20
2018-12-25T08:34:00.422Z,45.20
2018-12-25T08:37:00.651Z,45.20
2018-12-25T08:39:41.152Z,45.10
2018-12-25T08:42:22.328Z,45.10
2018-12-25T08:45:22.721Z,45.10
2018-12-25T08:48:03.015Z,45.10
2018-12-25T08:51:03.029Z,44.40
2018-12-25T08:53:43.517Z,45.10
2018-12-25T08:56:24.445Z,45.00
2018-12-25T08:59:05.213Z,45.00
2018-12-25T09:01:46.129Z,45.00
2018-12-25T09:04:27.022Z,45.10
2018-12-25T09:07:08.172Z,45.00
2018-12-25T09:09:49.424Z,45.00
2018-12-25T09:12:30.224Z,44.50
2018-12-25T09:15:11.232Z,45.00
2018-12-25T09:17:52.329Z,45.00
2018-12-25T09:20:33.033Z,44.90
2018-12-25T09:23:11.751Z,45.00
2018-12-25T09:25:59.408Z,45.00
2018-12-25T09:28:47.085Z,45.00
2018-12-25T09:31:35.032Z,44.80
2018-12-25T09:34:22.988Z,45.10
2018-12-25T09:37:10.660Z,45.10
2018-12-25T09:39:58.340Z,45.10
2018-12-25T09:42:46.030Z,45.00
2018-12-25T09:45:33.716Z,45.20
2018-12-25T09:48:33.282Z,45.00
2018-12-25T09:51:10.792Z,45.20
2018-12-25T09:53:58.495Z,45.10
2018-12-25T09:56:46.196Z,45.20
2018-12-25T09:59:33.884Z,45.00
2018-12-25T10:02:21.562Z,45.20
2018-12-25T10:08:53.269Z,44.70
2018-12-25T10:11:33.608Z,45.20
2018-12-25T10:14:14.676Z,45.00
2018-12-25T10:16:54.885Z,45.30
2018-12-25T10:19:35.897Z,45.10
2018-12-25T10:22:16.124Z,45.00
2018-12-25T10:24:56.376Z,45.10
2018-12-25T10:27:37.477Z,45.10
2018-12-25T10:30:18.460Z,45.00
2018-12-25T10:32:59.508Z,45.10
2018-12-25T10:35:40.500Z,45.00
2018-12-25T10:38:20.923Z,45.00
2018-12-25T10:41:01.930Z,45.00
2018-12-25T10:46:50.824Z,45.00
2018-12-25T10:49:31.783Z,44.80
2018-12-25T10:52:12.844Z,44.50
2018-12-25T11:07:19.437Z,44.90
2018-12-25T11:10:00.149Z,45.00
2018-12-25T11:12:40.836Z,44.90
2018-12-25T11:15:21.992Z,45.00
2018-12-25T11:18:02.972Z,45.00
2018-12-25T11:20:43.733Z,45.10
2018-12-25T11:23:25.056Z,45.10
2018-12-25T11:26:05.679Z,44.60
2018-12-25T11:28:46.834Z,44.80
2018-12-25T11:34:36.559Z,44.80
2018-12-25T11:40:45.293Z,45.60
2018-12-25T11:43:25.532Z,45.00
2018-12-25T11:49:14.429Z,44.90
2018-12-25T11:51:55.117Z,45.00
2018-12-25T11:54:35.868Z,45.00
2018-12-25T12:06:38.689Z,45.50
2018-12-25T12:09:19.928Z,44.50
2018-12-25T12:12:00.367Z,44.70
2018-12-25T12:14:41.225Z,44.50
2018-12-25T12:17:22.371Z,44.50
2018-12-25T12:20:02.705Z,44.60
2018-12-25T12:22:49.938Z,44.40
2018-12-25T12:25:30.798Z,44.00
2018-12-25T12:28:11.933Z,43.80
2018-12-25T12:30:53.369Z,44.10
2018-12-25T12:33:34.006Z,44.10
2018-12-25T12:36:14.649Z,43.80
2018-12-25T12:42:03.993Z,43.90
2018-12-25T12:44:44.812Z,43.80
2018-12-25T12:47:25.982Z,43.70
2018-12-25T12:50:06.335Z,43.70
2018-12-25T12:52:47.054Z,43.70
2018-12-25T12:58:36.945Z,43.60
2018-12-25T13:01:17.731Z,43.50
2018-12-25T13:03:58.994Z,43.10
2018-12-25T13:06:40.028Z,43.30
2018-12-25T13:09:21.098Z,43.50
2018-12-25T13:15:09.616Z,43.40
2018-12-25T13:21:17.819Z,43.40
2018-12-25T13:23:58.576Z,43.20
2018-12-25T13:26:39.784Z,43.30
2018-12-25T13:29:20.315Z,43.30
2018-12-25T13:32:01.201Z,43.20
2018-12-25T13:34:41.731Z,43.20
2018-12-25T13:37:22.725Z,43.20
2018-12-25T13:40:22.871Z,42.70
2018-12-25T13:43:03.493Z,43.00
2018-12-25T13:45:44.645Z,42.80
2018-12-25T13:48:25.729Z,43.00
2018-12-25T13:51:06.354Z,43.00
2018-12-25T13:56:55.424Z,42.90
2018-12-25T13:59:43.127Z,42.80
2018-12-25T14:02:48.687Z,42.90
2018-12-25T14:05:36.384Z,42.80
2018-12-25T14:08:24.099Z,42.80
2018-12-25T14:11:11.773Z,42.90
2018-12-25T14:19:45.782Z,42.80
2018-12-25T14:34:33.136Z,42.60
2018-12-25T14:37:13.440Z,42.60
2018-12-25T14:39:53.664Z,42.50
2018-12-25T14:42:34.609Z,42.60
2018-12-25T14:45:15.078Z,42.60
2018-12-25T14:47:55.497Z,42.50
2018-12-25T14:50:36.243Z,42.50
2018-12-25T14:53:19.876Z,42.60
2018-12-25T14:55:59.095Z,42.60
2018-12-25T14:58:40.415Z,42.20
2018-12-25T15:04:29.900Z,42.50
2018-12-25T15:10:28.928Z,42.50
2018-12-25T15:13:09.693Z,42.50
2018-12-25T15:15:51.078Z,42.30
2018-12-25T15:18:32.430Z,42.70
2018-12-25T15:21:00.763Z,42.30
2018-12-25T15:23:48.554Z,42.40
2018-12-25T15:26:36.351Z,42.40
2018-12-25T15:32:30.975Z,42.40
2018-12-25T15:35:39.494Z,42.30
2018-12-25T15:38:33.973Z,42.30
2018-12-25T15:41:21.730Z,42.40
2018-12-25T15:44:09.522Z,42.50
2018-12-25T15:47:09.086Z,42.00
2018-12-25T15:52:36.134Z,42.40
2018-12-25T15:55:23.843Z,42.30
2018-12-25T15:58:11.891Z,42.30
2018-12-25T16:01:01.262Z,42.30
2018-12-25T16:04:08.580Z,42.30
2018-12-25T16:06:49.743Z,42.10
2018-12-25T16:09:30.877Z,41.90
2018-12-25T16:12:12.099Z,42.30
2018-12-25T16:18:12.043Z,42.30
2018-12-25T16:20:53.198Z,42.30
2018-12-25T16:23:34.643Z,42.30
2018-12-25T16:26:15.311Z,42.30
2018-12-25T16:28:56.429Z,42.30
2018-12-25T16:31:36.790Z,42.10
2018-12-25T16:34:17.539Z,42.10
2018-12-25T16:40:16.917Z,42.30
2018-12-25T16:42:57.504Z,41.90
2018-12-25T16:45:38.389Z,42.20
2018-12-25T16:48:19.360Z,42.10
2018-12-25T16:51:00.146Z,41.90
2018-12-25T16:53:41.962Z,42.10
2018-12-25T16:56:22.727Z,42.10
2018-12-25T16:59:03.712Z,42.20
2018-12-25T17:01:44.188Z,42.00
2018-12-25T17:04:25.303Z,41.80
2018-12-25T17:10:10.167Z,42.20
2018-12-25T17:12:51.369Z,42.20
2018-12-25T17:15:32.220Z,42.10
2018-12-25T17:18:13.367Z,42.20
2018-12-25T17:20:54.118Z,42.20
2018-12-25T17:23:35.304Z,42.00
2018-12-25T17:26:16.008Z,42.10
2018-12-25T17:28:57.134Z,42.00
2018-12-25T17:31:38.004Z,42.00
2018-12-25T17:34:19.393Z,41.70
2018-12-25T17:36:59.984Z,42.00
2018-12-25T17:39:40.635Z,42.00
2018-12-25T17:42:21.696Z,41.80
2018-12-25T17:45:02.330Z,42.00
2018-12-25T17:47:43.467Z,42.00
2018-12-25T17:50:24.417Z,42.00
2018-12-25T17:53:06.265Z,42.00
2018-12-25T17:55:47.304Z,42.10
2018-12-25T17:58:27.590Z,41.90
2018-12-25T18:01:08.717Z,42.10
2018-12-25T18:03:49.411Z,42.10
2018-12-25T18:06:30.403Z,42.20
2018-12-25T18:09:11.225Z,42.30
2018-12-25T18:11:52.003Z,42.30
2018-12-25T18:14:32.927Z,42.20
2018-12-25T18:17:18.797Z,42.50
2018-12-25T18:19:55.329Z,42.50
2018-12-25T18:22:36.372Z,42.40
2018-12-25T18:25:17.360Z,42.60
2018-12-25T18:27:57.700Z,42.60
2018-12-25T18:30:38.889Z,42.60
2018-12-25T18:33:19.513Z,42.80
2018-12-25T18:39:08.571Z,42.90
2018-12-25T18:41:49.380Z,42.60
2018-12-25T18:44:30.437Z,43.00
2018-12-25T18:47:11.483Z,42.90
2018-12-25T18:49:52.237Z,43.20
2018-12-25T18:52:52.070Z,43.10
2018-12-25T18:55:32.384Z,43.10
2018-12-25T18:58:13.252Z,42.80
2018-12-25T19:00:53.948Z,43.20
2018-12-25T19:03:34.513Z,42.60
2018-12-25T19:06:15.572Z,43.10
2018-12-25T19:08:56.694Z,43.10
2018-12-25T19:14:46.021Z,43.20
2018-12-25T19:17:27.056Z,43.20
2018-12-25T19:20:07.314Z,43.30
2018-12-25T19:22:47.986Z,43.30
2018-12-25T19:25:28.969Z,43.30
2018-12-25T19:28:09.876Z,43.40
2018-12-25T19:30:51.156Z,43.00
2018-12-25T19:33:31.402Z,43.40
2018-12-25T19:36:11.944Z,43.40
2018-12-25T19:38:52.855Z,43.40
2018-12-25T19:41:33.499Z,43.30
2018-12-25T19:44:13.984Z,43.40
2018-12-25T19:50:03.052Z,43.20
2018-12-25T19:52:43.535Z,43.30
2018-12-25T19:55:24.296Z,43.30
2018-12-25T19:58:05.255Z,43.10
2018-12-25T20:00:46.436Z,43.10
2018-12-25T20:03:26.805Z,43.00
2018-12-25T20:06:07.768Z,43.30
2018-12-25T20:08:48.433Z,43.10
2018-12-25T20:11:29.508Z,43.30
2018-12-25T20:14:10.482Z,43.30
2018-12-25T20:16:50.836Z,43.30
2018-12-25T20:19:31.056Z,43.30
2018-12-25T20:22:11.189Z,43.30
2018-12-25T20:24:52.772Z,43.30
2018-12-25T20:30:52.617Z,43.30
2018-12-25T20:33:32.816Z,43.10
2018-12-25T20:36:13.383Z,43.30
2018-12-25T20:38:54.373Z,43.00
2018-12-25T20:41:35.677Z,43.40
2018-12-25T20:44:16.492Z,43.40
2018-12-25T20:46:56.700Z,43.00
2018-12-25T20:49:37.432Z,43.40
2018-12-25T20:52:18.443Z,43.40
2018-12-25T20:55:01.482Z,43.50
2018-12-25T20:57:41.967Z,43.50
2018-12-25T21:00:22.497Z,43.20
2018-12-25T21:03:03.626Z,43.50
2018-12-25T21:05:44.390Z,43.40
2018-12-25T21:08:25.436Z,43.40
2018-12-25T21:11:06.560Z,43.60
2018-12-25T21:13:47.575Z,43.60
2018-12-25T21:16:28.917Z,43.60
2018-12-25T21:19:10.031Z,43.50
2018-12-25T21:21:51.124Z,43.60
2018-12-25T21:24:32.332Z,43.60
2018-12-25T21:27:13.158Z,43.70
2018-12-25T21:29:54.212Z,43.70
2018-12-25T21:32:34.920Z,43.80
2018-12-25T21:35:15.893Z,43.80
2018-12-25T21:37:56.788Z,43.70
2018-12-25T21:40:37.557Z,43.80
2018-12-25T21:43:19.308Z,43.80
2018-12-25T21:46:00.078Z,43.70
2018-12-25T21:48:40.704Z,43.60
2018-12-25T21:51:21.654Z,43.40
2018-12-25T21:54:02.626Z,43.40
2018-12-25T21:56:44.340Z,43.50
2018-12-25T21:59:25.579Z,43.70
2018-12-25T22:02:06.704Z,43.70
2018-12-25T22:04:48.140Z,43.80
2018-12-25T22:07:28.893Z,43.80
2018-12-25T22:10:10.111Z,43.80
2018-12-25T22:12:51.165Z,43.80
2018-12-25T22:15:32.706Z,43.70
2018-12-25T22:18:14.408Z,43.70
2018-12-25T22:20:55.616Z,43.70
2018-12-25T22:23:37.381Z,43.60
2018-12-25T22:26:18.682Z,43.50
2018-12-25T22:28:59.347Z,43.50
2018-12-25T22:31:40.622Z,43.80
2018-12-25T22:34:21.314Z,43.70
2018-12-25T22:37:02.595Z,43.90
2018-12-25T22:39:43.592Z,43.90
2018-12-25T22:42:24.364Z,43.90
2018-12-25T22:45:05.637Z,43.90
2018-12-25T22:47:46.259Z,43.80
2018-12-25T22:50:27.294Z,43.90
2018-12-25T22:53:07.965Z,44.70
2018-12-25T22:55:48.709Z,43.80
2018-12-25T22:58:29.692Z,44.10
2018-12-25T23:01:11.315Z,43.30
2018-12-25T23:03:52.757Z,44.10
2018-12-25T23:06:33.046Z,43.90
2018-12-25T23:09:14.422Z,44.10
2018-12-25T23:11:55.765Z,43.70
2018-12-25T23:14:36.939Z,43.90
2018-12-25T23:17:17.597Z,44.00
2018-12-25T23:19:58.033Z,44.10
2018-12-25T23:25:44.783Z,44.10
2018-12-25T23:28:25.681Z,43.80
2018-12-25T23:31:07.179Z,43.90
2018-12-25T23:33:47.729Z,43.90
2018-12-25T23:39:45.140Z,43.70
2018-12-25T23:42:25.628Z,43.90
2018-12-25T23:45:06.528Z,43.90
2018-12-25T23:47:47.708Z,43.90
2018-12-25T23:50:28.488Z,43.90
2018-12-25T23:53:09.178Z,43.90
2018-12-25T23:55:53.000Z,43.90
2018-12-25T23:58:31.905Z,44.00
